ΕΜΥ, Εθνική Μετεωρολογική Υπηρεσία - Δελτία Καιρού, Προγνώσεις

ΑΕΡΟΝΑΥΤΙΛΙΑ

GREEK AIRPORTS CODES

LGEL 300920Z /////KT 9999 SCT025 23/11 Q1015=

EUROPEAN AIRPORTS CODES

TAF LGEL 300500Z 3006/3106 VRB03KT 9999 FEW025 TEMPO 3009/3015 17012KT SCT020 BKN070=